createdAt,value
2022-12-24T00:05:01.557Z,2.30
2022-12-24T00:10:07.618Z,2.53
2022-12-24T00:15:15.723Z,3.53
2022-12-24T00:20:21.161Z,2.25
2022-12-24T00:25:26.514Z,2.50
2022-12-24T00:30:34.394Z,2.33
2022-12-24T00:35:40.858Z,2.67
2022-12-24T00:40:46.117Z,2.13
2022-12-24T00:45:53.962Z,3.08
2022-12-24T00:50:59.297Z,2.60
2022-12-24T00:56:04.559Z,2.10
2022-12-24T01:01:13.024Z,2.53
2022-12-24T01:06:20.461Z,3.50
2022-12-24T01:11:25.670Z,2.60
2022-12-24T01:16:33.612Z,3.25
2022-12-24T01:21:38.940Z,3.50
2022-12-24T01:26:44.331Z,2.80
2022-12-24T01:31:52.186Z,2.17
2022-12-24T01:36:57.832Z,2.55
2022-12-24T01:42:15.754Z,3.63
2022-12-24T01:47:27.106Z,2.30
2022-12-24T01:52:36.063Z,2.75
2022-12-24T01:57:45.762Z,2.43
2022-12-24T02:02:55.989Z,3.65
2022-12-24T02:08:03.265Z,2.72
2022-12-24T02:13:09.390Z,2.37
2022-12-24T02:18:26.851Z,2.70
2022-12-24T02:23:59.415Z,3.28
2022-12-24T02:29:24.191Z,2.63
2022-12-24T02:34:35.817Z,2.85
2022-12-24T02:39:46.354Z,2.23
2022-12-24T02:44:55.558Z,2.65
2022-12-24T02:50:04.004Z,3.63
2022-12-24T02:55:12.520Z,2.67
2022-12-24T03:00:21.087Z,2.35
2022-12-24T03:05:35.807Z,2.33
2022-12-24T03:10:47.942Z,2.47
2022-12-24T03:15:54.568Z,2.10
2022-12-24T03:21:06.642Z,2.67
2022-12-24T03:26:15.333Z,2.60
2022-12-24T03:31:21.411Z,2.60
2022-12-24T03:36:30.882Z,3.17
2022-12-24T03:41:36.550Z,1.73
2022-12-24T03:46:41.808Z,1.93
2022-12-24T03:51:49.751Z,1.98
2022-12-24T03:56:55.098Z,2.53
2022-12-24T04:02:00.582Z,2.27
2022-12-24T04:07:09.292Z,2.42
2022-12-24T04:12:14.525Z,2.37
2022-12-24T04:17:20.192Z,2.15
2022-12-24T04:22:28.128Z,2.13
2022-12-24T04:27:33.406Z,1.90
2022-12-24T04:32:38.678Z,2.47
2022-12-24T04:37:46.488Z,2.00
2022-12-24T04:42:52.128Z,1.93
2022-12-24T04:47:57.393Z,2.05
2022-12-24T04:53:05.233Z,1.90
2022-12-24T04:58:10.583Z,1.90
2022-12-24T05:03:16.110Z,1.85
2022-12-24T05:08:23.996Z,1.20
2022-12-24T05:13:37.671Z,1.77
2022-12-24T05:18:48.250Z,1.70
2022-12-24T05:24:09.396Z,1.60
2022-12-24T05:29:15.179Z,2.75
2022-12-24T05:34:20.695Z,2.77
2022-12-24T05:39:28.601Z,1.95
2022-12-24T05:44:33.893Z,1.70
2022-12-24T05:49:39.227Z,2.40
2022-12-24T05:54:47.167Z,2.38
2022-12-24T05:59:52.818Z,2.00
2022-12-24T06:04:58.182Z,1.50
2022-12-24T06:10:06.282Z,2.25
2022-12-24T06:15:14.426Z,2.63
2022-12-24T06:20:21.550Z,2.22
2022-12-24T06:25:29.370Z,2.92
2022-12-24T06:30:34.704Z,2.87
2022-12-24T06:35:40.054Z,2.72
2022-12-24T06:40:49.465Z,2.55
2022-12-24T06:45:54.764Z,2.80
2022-12-24T06:51:00.145Z,3.20
2022-12-24T06:56:10.234Z,2.47
2022-12-24T07:01:17.919Z,2.63
2022-12-24T07:06:29.935Z,3.08
2022-12-24T07:11:37.958Z,3.17
2022-12-24T07:16:44.402Z,3.38
2022-12-24T07:21:51.277Z,2.47
2022-12-24T07:26:59.409Z,3.07
2022-12-24T07:32:05.051Z,2.75
2022-12-24T07:37:10.760Z,3.43
2022-12-24T07:42:18.598Z,3.05
2022-12-24T07:47:23.838Z,2.75
2022-12-24T07:52:29.344Z,3.33
2022-12-24T07:57:37.891Z,3.13
2022-12-24T08:02:43.389Z,3.23
2022-12-24T08:07:48.822Z,3.97
2022-12-24T08:12:56.696Z,2.90
2022-12-24T08:18:02.037Z,2.77
2022-12-24T08:23:07.485Z,3.20
2022-12-24T08:28:16.609Z,3.03
2022-12-24T08:33:22.604Z,2.93
2022-12-24T08:38:28.031Z,2.70
2022-12-24T08:43:36.055Z,3.00
2022-12-24T08:48:41.421Z,2.93
2022-12-24T08:53:46.882Z,3.22
2022-12-24T08:58:54.777Z,3.10
2022-12-24T09:04:00.120Z,3.20
2022-12-24T09:09:06.281Z,3.97
2022-12-24T09:14:14.293Z,3.53
2022-12-24T09:19:19.554Z,4.05
2022-12-24T09:24:24.882Z,3.00
2022-12-24T09:29:32.871Z,3.38
2022-12-24T09:34:38.202Z,3.10
2022-12-24T09:39:43.509Z,3.10
2022-12-24T09:45:00.107Z,3.13
2022-12-24T09:50:10.433Z,3.10
2022-12-24T09:55:23.442Z,2.90
2022-12-24T10:00:34.937Z,2.95
2022-12-24T10:05:46.476Z,3.23
2022-12-24T10:10:55.848Z,4.55
2022-12-24T10:16:12.513Z,2.85
2022-12-24T10:21:23.578Z,3.17
2022-12-24T10:26:31.962Z,3.40
2022-12-24T10:31:46.761Z,3.73
2022-12-24T10:36:52.190Z,2.83
2022-12-24T10:42:00.482Z,2.72
2022-12-24T10:47:10.930Z,3.40
2022-12-24T10:52:17.983Z,2.77
2022-12-24T10:57:29.498Z,3.13
2022-12-24T11:02:39.868Z,3.83
2022-12-24T11:07:45.345Z,3.97
2022-12-24T11:13:20.364Z,3.75
2022-12-24T11:18:20.388Z,3.90
2022-12-24T11:23:25.653Z,3.03
2022-12-24T11:28:33.493Z,3.35
2022-12-24T11:33:52.885Z,2.90
2022-12-24T11:39:00.622Z,3.03
2022-12-24T11:44:07.915Z,3.53
2022-12-24T11:49:25.305Z,4.07
2022-12-24T11:54:34.422Z,3.88
2022-12-24T11:59:44.092Z,2.53
2022-12-24T12:04:56.494Z,3.47
2022-12-24T12:10:07.995Z,3.28
2022-12-24T12:15:16.493Z,3.67
2022-12-24T12:20:27.197Z,2.92
2022-12-24T12:25:39.103Z,3.85
2022-12-24T12:30:47.552Z,4.33
2022-12-24T12:35:58.025Z,3.42
2022-12-24T12:41:15.144Z,3.42
2022-12-24T12:46:28.823Z,3.23
2022-12-24T12:51:45.753Z,3.50
2022-12-24T12:56:54.927Z,3.47
2022-12-24T13:02:07.458Z,3.43
2022-12-24T13:07:46.156Z,3.03
2022-12-24T13:13:06.672Z,3.80
2022-12-24T13:18:40.730Z,2.40
2022-12-24T13:23:48.784Z,3.03
2022-12-24T13:28:54.066Z,2.63
2022-12-24T13:34:01.901Z,2.75
2022-12-24T13:39:22.059Z,2.38
2022-12-24T13:44:33.681Z,2.63
2022-12-24T13:49:42.025Z,2.60
2022-12-24T13:55:03.073Z,2.67
2022-12-24T14:00:30.402Z,2.03
2022-12-24T14:05:39.297Z,2.15
2022-12-24T14:10:59.587Z,1.80
2022-12-24T14:16:07.407Z,1.98
2022-12-24T14:21:20.248Z,2.05
2022-12-24T14:26:46.474Z,1.87
2022-12-24T14:31:59.675Z,2.70
2022-12-24T14:37:07.419Z,2.40
2022-12-24T14:42:31.307Z,2.00
2022-12-24T14:47:43.399Z,3.42
2022-12-24T14:53:16.868Z,3.47
2022-12-24T14:58:26.956Z,2.90
2022-12-24T15:03:33.917Z,2.67
2022-12-24T15:08:42.974Z,2.33
2022-12-24T15:13:56.575Z,3.03
2022-12-24T15:19:05.869Z,2.33
2022-12-24T15:24:27.098Z,2.60
2022-12-24T15:29:42.174Z,2.95
2022-12-24T15:34:49.661Z,2.87
2022-12-24T15:40:00.075Z,9.63
2022-12-24T15:45:16.569Z,10.52
2022-12-24T15:50:29.103Z,7.87
2022-12-24T15:55:39.149Z,7.43
2022-12-24T16:01:02.386Z,6.47
2022-12-24T16:06:09.269Z,5.27
2022-12-24T16:11:19.237Z,3.80
2022-12-24T16:16:35.737Z,5.45
2022-12-24T16:21:43.347Z,4.67
2022-12-24T16:26:49.182Z,5.90
2022-12-24T16:31:59.435Z,4.85
2022-12-24T16:37:05.613Z,5.30
2022-12-24T16:42:23.537Z,5.35
2022-12-24T16:47:42.053Z,5.82
2022-12-24T16:52:48.167Z,4.70
2022-12-24T16:57:53.529Z,5.72
2022-12-24T17:03:01.752Z,5.32
2022-12-24T17:08:08.046Z,5.63
2022-12-24T17:13:13.574Z,4.53
2022-12-24T17:18:21.449Z,5.17
2022-12-24T17:23:26.697Z,4.43
2022-12-24T17:28:31.952Z,4.93
2022-12-24T17:33:39.829Z,4.50
2022-12-24T17:38:45.199Z,6.60
2022-12-24T17:43:50.928Z,11.37
2022-12-24T17:48:59.195Z,8.10
2022-12-24T17:54:05.477Z,7.57
2022-12-24T17:59:10.989Z,7.33
2022-12-24T18:04:18.905Z,6.40
2022-12-24T18:09:24.127Z,6.68
2022-12-24T18:14:29.574Z,6.70
2022-12-24T18:19:37.570Z,8.07
2022-12-24T18:24:42.954Z,8.00
2022-12-24T18:29:48.189Z,7.75
2022-12-24T18:34:56.542Z,7.30
2022-12-24T18:40:02.322Z,7.57
2022-12-24T18:45:08.778Z,8.20
2022-12-24T18:50:16.728Z,7.43
2022-12-24T18:55:22.013Z,6.83
2022-12-24T19:00:27.410Z,8.32
2022-12-24T19:05:36.040Z,7.87
2022-12-24T19:10:41.318Z,7.10
2022-12-24T19:15:46.593Z,6.88
2022-12-24T19:20:54.654Z,8.13
2022-12-24T19:25:59.947Z,7.05
2022-12-24T19:31:07.136Z,7.47
2022-12-24T19:36:18.387Z,6.30
2022-12-24T19:41:25.934Z,7.32
2022-12-24T19:46:33.158Z,7.10
2022-12-24T19:51:41.569Z,7.53
2022-12-24T19:56:47.183Z,7.17
2022-12-24T20:01:54.334Z,8.45
2022-12-24T20:07:02.614Z,8.35
2022-12-24T20:12:08.587Z,7.73
2022-12-24T20:17:14.894Z,7.95
2022-12-24T20:22:22.712Z,8.50
2022-12-24T20:27:28.579Z,8.75
2022-12-24T20:32:33.857Z,8.55
2022-12-24T20:37:46.277Z,8.77
2022-12-24T20:42:51.833Z,8.80
2022-12-24T20:47:57.301Z,8.97
2022-12-24T20:53:05.163Z,8.82
2022-12-24T20:58:10.476Z,9.40
2022-12-24T21:03:15.857Z,8.73
2022-12-24T21:08:24.029Z,9.15
2022-12-24T21:13:31.080Z,8.83
2022-12-24T21:18:36.344Z,8.43
2022-12-24T21:23:44.262Z,8.18
2022-12-24T21:28:50.544Z,8.73
2022-12-24T21:33:55.905Z,7.78
2022-12-24T21:39:03.781Z,8.47
2022-12-24T21:44:10.815Z,7.03
2022-12-24T21:49:29.020Z,7.85
2022-12-24T21:54:37.491Z,8.53
2022-12-24T21:59:43.485Z,7.78
2022-12-24T22:04:49.289Z,9.07
2022-12-24T22:10:09.694Z,7.75
2022-12-24T22:15:15.416Z,7.10
2022-12-24T22:20:20.970Z,7.53
2022-12-24T22:25:28.951Z,7.38
2022-12-24T22:30:35.129Z,8.23
2022-12-24T22:35:41.199Z,6.85
2022-12-24T22:40:49.475Z,6.53
2022-12-24T22:45:54.778Z,6.23
2022-12-24T22:51:00.105Z,7.28
2022-12-24T22:56:09.503Z,6.57
2022-12-24T23:01:15.199Z,6.55
2022-12-24T23:06:20.880Z,5.50
2022-12-24T23:11:30.366Z,5.83
2022-12-24T23:16:35.950Z,6.22
2022-12-24T23:21:42.261Z,5.63
2022-12-24T23:26:50.183Z,5.70
2022-12-24T23:31:56.613Z,5.35
2022-12-24T23:37:02.335Z,4.87
2022-12-24T23:42:10.592Z,4.38
2022-12-24T23:47:16.101Z,5.00
2022-12-24T23:52:21.676Z,4.68
2022-12-24T23:57:29.604Z,4.38
